KLCK/LCK METAR and TAF weather

Enter ICAO airport designator
Station Type Date Time Source
KLCK METAR 2022/12/04 11:55 UTC NOAA

KLCK 041155Z AUTO 00000KT 10SM CLR M08/M09 A3034 RMK AO2 T10801090 11033 21080


Station Type Date Time Source
KLCK Decoded METAR 2022/12/04 11:55 UTC NOAA

Rickenbacker Air National Guard Base, OH, United States (KLCK) 39-49N 082-56W
Dec 04, 2022 - 06:55 AM EST / 2022.12.04 1155 UTC
Wind: Calm:0
Visibility: 10 mile(s):0
Sky conditions: clear
Temperature: 17.6 F (-8.0 C)
Dew Point: 15.8 F (-9.0 C)
Relative Humidity: 92%
Pressure (altimeter): 30.34 in. Hg (1027 hPa)
ob: KLCK 041155Z AUTO 00000KT 10SM CLR M08/M09 A3034 RMK AO2 T10801090 11033 21080
cycle: 12

Station Type Date Time Source
KLCK TAF 2022/12/04 12:25 UTC NOAA

TAF KLCK 041120Z 0412/0512 VRB03KT P6SM FEW200
FM041400 23007KT P6SM SKC
FM050000 18003KT P6SM SCT250

Example: see airport list